Time;durP1;ratioP1;P1;durP2;ratioP2;P2;SDS_P1;SDS_P2;PMS_P1;PMS_P2;Temp;Humidity;BMP_temperature;BMP_pressure;BME280_temperature;BME280_humidity;BME280_pressure;Samples;Min_cycle;Max_cycle;Signal;HPM_P1;HPM_P2
2023/01/23 00:02:20;;;;;;;33.47;16.98;;;3.00;99.90;;;;;;5046356;28;20473;-76
2023/01/23 00:04:46;;;;;;;36.08;17.38;;;3.00;99.90;;;;;;5045912;28;20431;-75
2023/01/23 00:07:11;;;;;;;34.60;17.30;;;3.10;99.90;;;;;;5050302;28;20029;-75
2023/01/23 00:09:37;;;;;;;36.30;17.20;;;3.00;99.90;;;;;;5050387;28;20028;-75
2023/01/23 00:12:04;;;;;;;33.33;17.23;;;3.00;99.90;;;;;;5049184;28;20036;-75
2023/01/23 00:14:30;;;;;;;31.77;17.73;;;3.00;99.90;;;;;;5032319;28;20545;-75
2023/01/23 00:16:55;;;;;;;32.40;17.35;;;3.00;99.90;;;;;;5041808;28;20074;-75
2023/01/23 00:19:21;;;;;;;33.25;17.88;;;3.00;99.90;;;;;;5049962;28;20115;-75
2023/01/23 00:21:47;;;;;;;30.52;15.90;;;3.00;99.90;;;;;;5041425;28;20037;-75
2023/01/23 00:24:12;;;;;;;33.03;16.75;;;3.00;99.90;;;;;;5041520;28;20025;-75
2023/01/23 00:26:38;;;;;;;31.17;16.95;;;3.10;99.90;;;;;;5049765;28;20540;-75
2023/01/23 00:29:04;;;;;;;34.60;16.30;;;3.00;99.90;;;;;;5044869;28;20092;-75
2023/01/23 00:31:33;;;;;;;36.75;17.25;;;3.00;99.90;;;;;;5049750;28;20071;-75
2023/01/23 00:34:02;;;;;;;30.90;16.23;;;3.00;99.90;;;;;;5040391;28;20032;-75
2023/01/23 00:36:31;;;;;;;32.70;16.55;;;3.00;99.90;;;;;;5040460;28;20041;-75
2023/01/23 00:38:57;;;;;;;31.48;16.73;;;3.00;99.90;;;;;;5042894;28;20060;-75
2023/01/23 00:41:22;;;;;;;33.47;15.85;;;3.00;99.90;;;;;;5038932;28;20459;-75
2023/01/23 00:43:50;;;;;;;33.95;15.45;;;3.00;99.90;;;;;;5041964;28;20025;-76
2023/01/23 00:46:17;;;;;;;29.58;15.68;;;3.00;99.90;;;;;;5048969;28;20474;-75
2023/01/23 00:48:42;;;;;;;30.83;16.88;;;3.00;99.90;;;;;;5043384;28;20476;-75
2023/01/23 00:51:08;;;;;;;30.70;15.73;;;3.00;99.90;;;;;;5029715;28;20068;-76
2023/01/23 00:53:34;;;;;;;29.70;15.50;;;3.00;99.90;;;;;;5027557;28;20018;-75
2023/01/23 00:56:00;;;;;;;28.52;15.15;;;3.00;99.90;;;;;;5030067;28;20120;-75
2023/01/23 00:58:25;;;;;;;33.08;15.75;;;3.00;99.90;;;;;;5047045;28;20068;-75
2023/01/23 01:00:51;;;;;;;30.42;15.40;;;3.00;99.90;;;;;;5043446;28;20052;-75
2023/01/23 01:03:18;;;;;;;32.60;15.80;;;3.00;99.90;;;;;;5042231;28;20400;-75
2023/01/23 01:05:43;;;;;;;31.25;15.57;;;3.00;99.90;;;;;;5047544;28;20083;-75
2023/01/23 01:08:09;;;;;;;30.83;15.98;;;3.00;99.90;;;;;;5053099;28;20033;-75
2023/01/23 01:10:35;;;;;;;30.25;15.80;;;3.00;99.90;;;;;;5039557;28;20025;-75
2023/01/23 01:13:02;;;;;;;30.20;15.60;;;3.00;99.90;;;;;;5051166;28;20507;-75
2023/01/23 01:15:28;;;;;;;26.75;15.50;;;3.00;99.90;;;;;;5047017;28;20063;-75
2023/01/23 01:17:54;;;;;;;35.15;16.73;;;3.00;99.90;;;;;;5049192;28;20034;-75
2023/01/23 01:20:24;;;;;;;32.88;16.13;;;3.00;99.90;;;;;;5053432;28;20464;-75
2023/01/23 01:22:51;;;;;;;31.15;15.02;;;3.00;99.90;;;;;;5043309;28;20497;-75
2023/01/23 01:25:17;;;;;;;31.17;15.40;;;3.00;99.90;;;;;;5032958;28;20381;-75
2023/01/23 01:27:43;;;;;;;32.85;15.75;;;3.00;99.90;;;;;;5050897;28;20091;-75
2023/01/23 01:30:09;;;;;;;26.55;14.85;;;3.00;99.90;;;;;;5051891;28;20039;-75
2023/01/23 01:32:39;;;;;;;33.15;16.33;;;3.00;99.90;;;;;;5051383;28;20029;-75
2023/01/23 01:35:06;;;;;;;34.40;16.02;;;3.00;99.90;;;;;;5040745;28;20021;-76
2023/01/23 01:37:37;;;;;;;29.63;15.52;;;3.00;99.90;;;;;;5045575;28;20025;-75
2023/01/23 01:40:08;;;;;;;30.92;16.38;;;3.00;99.90;;;;;;5052079;28;20124;-75
2023/01/23 01:42:43;;;;;;;31.88;15.43;;;3.00;99.90;;;;;;5049074;28;20309;-75
2023/01/23 01:45:27;;;;;;;;;;;2.90;99.90;;;;;;5050645;28;20163;-76
2023/01/23 01:47:52;;;;;;;32.25;14.23;;;2.90;99.90;;;;;;5047938;28;19916;-75
2023/01/23 01:50:18;;;;;;;29.77;15.63;;;2.90;99.90;;;;;;5035760;28;20053;-75
2023/01/23 01:52:44;;;;;;;29.27;14.80;;;2.90;99.90;;;;;;5046238;28;20028;-75
2023/01/23 01:55:09;;;;;;;31.55;15.80;;;2.90;99.90;;;;;;5049579;28;20461;-76
2023/01/23 01:57:39;;;;;;;30.08;15.90;;;2.90;99.90;;;;;;5041768;28;20033;-75
2023/01/23 02:00:15;;;;;;;28.02;14.77;;;2.90;99.90;;;;;;5047862;28;20029;-75
2023/01/23 02:02:48;;;;;;;29.27;15.32;;;2.90;99.90;;;;;;5049186;28;20048;-75
2023/01/23 02:05:25;;;;;;;31.67;15.40;;;2.90;99.90;;;;;;5052560;28;20033;-75
2023/01/23 02:07:59;;;;;;;33.45;15.50;;;2.90;99.90;;;;;;5053067;28;20017;-75
2023/01/23 02:10:25;;;;;;;29.20;15.10;;;2.90;99.90;;;;;;5045374;28;20380;-75
2023/01/23 02:12:51;;;;;;;32.45;15.52;;;2.90;99.90;;;;;;5050671;28;20025;-75
2023/01/23 02:15:20;;;;;;;35.63;16.05;;;2.90;99.90;;;;;;5047557;28;20030;-75
2023/01/23 02:17:47;;;;;;;32.45;16.02;;;2.90;99.90;;;;;;5051915;28;20035;-75
2023/01/23 02:20:15;;;;;;;31.60;15.93;;;2.90;99.90;;;;;;5046700;28;20361;-76
2023/01/23 02:22:57;;;;;;;34.00;15.48;;;2.90;99.90;;;;;;5045883;28;20030;-75
2023/01/23 02:25:44;;;;;;;36.28;15.98;;;2.90;99.90;;;;;;5033572;28;20057;-76
2023/01/23 02:28:12;;;;;;;37.45;16.02;;;2.90;99.90;;;;;;5052626;28;20380;-75
2023/01/23 02:30:39;;;;;;;33.67;16.13;;;2.80;99.90;;;;;;5047509;28;20380;-75
2023/01/23 02:33:21;;;;;;;33.65;15.68;;;2.90;99.90;;;;;;5047434;28;20029;-75
2023/01/23 02:35:47;;;;;;;34.40;15.07;;;2.80;99.90;;;;;;5026682;28;20545;-75
2023/01/23 02:38:13;;;;;;;29.05;15.32;;;2.80;99.90;;;;;;5052138;28;20040;-75
2023/01/23 02:40:41;;;;;;;34.33;17.30;;;2.80;99.90;;;;;;5052604;28;20033;-75
2023/01/23 02:43:12;;;;;;;35.40;16.77;;;2.80;99.90;;;;;;5036928;28;20045;-76
2023/01/23 02:45:38;;;;;;;33.13;16.75;;;2.80;99.90;;;;;;5052304;28;20403;-75
2023/01/23 02:48:06;;;;;;;36.08;16.35;;;2.80;99.90;;;;;;5046071;28;20037;-75
2023/01/23 02:50:33;;;;;;;42.20;16.20;;;2.80;99.90;;;;;;5048902;28;20547;-75
2023/01/23 02:52:59;;;;;;;35.40;15.85;;;2.80;99.90;;;;;;5040504;28;20029;-75
2023/01/23 02:55:28;;;;;;;35.60;17.13;;;2.80;99.90;;;;;;5052244;28;20344;-75
2023/01/23 03:00:14;;;;;;;36.83;16.25;;;2.80;99.90;;;;;;5034013;28;20399;-76
2023/01/23 03:00:42;;;;;;;36.75;16.17;;;2.80;99.90;;;;;;5041685;28;20464;-75
2023/01/23 03:03:08;;;;;;;37.42;16.35;;;2.80;99.90;;;;;;5049657;28;20029;-76
2023/01/23 03:05:33;;;;;;;42.33;16.73;;;2.80;99.90;;;;;;5051530;28;20102;-75
2023/01/23 03:07:59;;;;;;;37.40;16.38;;;2.80;99.90;;;;;;5051880;28;20486;-76
2023/01/23 03:10:25;;;;;;;36.17;16.85;;;2.80;99.90;;;;;;5046456;28;20031;-76
2023/01/23 03:12:50;;;;;;;35.15;16.17;;;2.90;99.90;;;;;;5044266;28;20021;-75
2023/01/23 03:15:16;;;;;;;35.33;16.00;;;2.80;99.90;;;;;;5044955;28;20025;-76
2023/01/23 03:17:42;;;;;;;39.42;16.48;;;2.80;99.90;;;;;;5032729;28;20534;-76
2023/01/23 03:20:08;;;;;;;36.55;16.45;;;2.90;99.90;;;;;;5031934;28;20472;-75
2023/01/23 03:22:34;;;;;;;37.08;16.70;;;2.90;99.90;;;;;;5050864;28;20503;-75
2023/01/23 03:25:00;;;;;;;41.78;16.88;;;2.90;99.90;;;;;;5016743;28;20017;-76
2023/01/23 03:27:25;;;;;;;36.08;16.63;;;2.90;99.90;;;;;;5044238;28;20079;-75
2023/01/23 03:32:37;;;;;;;39.85;16.60;;;2.90;99.90;;;;;;5048401;28;20135;-75
2023/01/23 03:35:04;;;;;;;36.83;16.90;;;2.90;99.90;;;;;;5046682;28;20067;-75
2023/01/23 03:37:29;;;;;;;37.97;16.98;;;2.90;99.90;;;;;;5050861;28;20033;-75
2023/01/23 03:42:39;;;;;;;41.08;16.95;;;2.90;99.90;;;;;;5046219;28;20172;-75
2023/01/23 03:45:05;;;;;;;36.10;17.15;;;2.90;99.90;;;;;;5040906;28;20536;-75
2023/01/23 03:47:31;;;;;;;36.47;16.30;;;2.90;99.90;;;;;;5049735;28;20671;-75
2023/01/23 03:49:57;;;;;;;38.95;17.35;;;2.90;99.90;;;;;;5044799;28;20053;-75
2023/01/23 03:52:23;;;;;;;45.45;17.45;;;2.90;99.90;;;;;;5050215;28;20468;-75
2023/01/23 03:54:49;;;;;;;38.20;18.20;;;2.90;99.90;;;;;;5048689;28;20036;-75
2023/01/23 03:57:14;;;;;;;35.30;17.70;;;2.90;99.90;;;;;;5043739;28;20033;-75
2023/01/23 03:59:40;;;;;;;43.78;18.15;;;2.90;99.90;;;;;;5049823;28;20043;-75
2023/01/23 04:02:06;;;;;;;36.45;17.30;;;2.90;99.90;;;;;;5029171;28;20021;-76
2023/01/23 04:04:32;;;;;;;38.92;17.77;;;2.90;99.90;;;;;;5047144;28;20104;-75
2023/01/23 04:06:59;;;;;;;42.55;18.10;;;2.90;99.90;;;;;;5047266;28;20349;-75
2023/01/23 04:09:26;;;;;;;34.88;17.63;;;2.90;99.90;;;;;;5048960;28;20021;-76
2023/01/23 04:11:56;;;;;;;38.55;18.17;;;2.90;99.90;;;;;;5045307;28;20071;-75
2023/01/23 04:14:23;;;;;;;40.42;18.40;;;2.90;99.90;;;;;;5026758;28;20021;-75
2023/01/23 04:16:49;;;;;;;39.58;18.60;;;2.90;99.90;;;;;;5043615;28;20033;-75
2023/01/23 04:19:18;;;;;;;37.33;18.70;;;2.90;99.90;;;;;;5044039;28;20539;-75
2023/01/23 04:21:45;;;;;;;36.95;17.90;;;2.90;99.90;;;;;;5042168;28;20037;-75
2023/01/23 04:24:11;;;;;;;40.28;18.52;;;2.90;99.90;;;;;;5047558;28;20017;-75
2023/01/23 04:26:37;;;;;;;40.80;19.70;;;2.90;99.90;;;;;;5049111;28;20032;-75
2023/01/23 04:29:03;;;;;;;45.30;19.42;;;2.90;99.90;;;;;;5049151;28;20040;-75
2023/01/23 04:31:29;;;;;;;39.85;17.55;;;2.90;99.90;;;;;;5048904;28;20025;-76
2023/01/23 04:33:55;;;;;;;40.13;19.50;;;2.90;99.90;;;;;;5037527;28;20017;-75
2023/01/23 04:36:20;;;;;;;44.88;18.70;;;2.90;99.90;;;;;;5048937;28;20029;-75
2023/01/23 04:38:46;;;;;;;40.63;19.40;;;2.90;99.90;;;;;;5036270;28;20411;-76
2023/01/23 04:41:19;;;;;;;37.25;18.40;;;2.90;99.90;;;;;;5050463;28;20376;-75
2023/01/23 04:43:44;;;;;;;41.95;18.70;;;2.90;99.90;;;;;;5048312;28;20021;-75
2023/01/23 04:46:10;;;;;;;44.22;19.23;;;2.90;99.90;;;;;;5046474;28;20078;-75
2023/01/23 04:48:35;;;;;;;41.95;18.60;;;2.90;99.90;;;;;;5037049;28;20018;-75
2023/01/23 04:51:03;;;;;;;50.80;19.38;;;2.90;99.90;;;;;;5036462;28;20094;-76
2023/01/23 04:53:28;;;;;;;165.52;87.05;;;2.90;99.90;;;;;;5050969;28;20036;-75
2023/01/23 04:55:54;;;;;;;39.70;20.85;;;2.90;99.90;;;;;;5050765;28;20112;-76
2023/01/23 04:58:20;;;;;;;42.90;19.00;;;2.90;99.90;;;;;;5051508;28;20537;-76
2023/01/23 05:00:46;;;;;;;43.95;20.23;;;2.90;99.90;;;;;;5050980;28;20033;-75
2023/01/23 05:03:13;;;;;;;42.35;19.20;;;2.90;99.90;;;;;;5050799;28;20104;-75
2023/01/23 05:05:39;;;;;;;47.67;19.75;;;2.90;99.90;;;;;;5049878;28;20029;-75
2023/01/23 05:08:05;;;;;;;38.85;18.40;;;2.90;99.90;;;;;;5050257;28;20079;-76
2023/01/23 05:10:31;;;;;;;38.38;18.35;;;2.90;99.90;;;;;;5049694;28;20384;-76
2023/01/23 05:12:56;;;;;;;44.10;18.88;;;2.90;99.90;;;;;;5050604;28;20017;-76
2023/01/23 05:15:22;;;;;;;42.88;18.98;;;2.90;99.90;;;;;;5035737;28;20025;-76
2023/01/23 05:17:48;;;;;;;40.15;19.13;;;2.90;99.90;;;;;;5035664;28;20059;-75
2023/01/23 05:20:14;;;;;;;39.85;19.60;;;2.90;99.90;;;;;;5045384;28;20021;-75
2023/01/23 05:22:51;;;;;;;44.50;20.33;;;3.00;99.90;;;;;;5049545;28;20025;-76
2023/01/23 05:25:21;;;;;;;46.42;19.92;;;2.90;99.90;;;;;;5049985;28;20037;-75
2023/01/23 05:27:47;;;;;;;38.75;18.80;;;3.00;99.90;;;;;;5030195;28;20021;-75
2023/01/23 05:30:13;;;;;;;47.03;19.67;;;3.00;99.90;;;;;;5042420;28;20043;-76
2023/01/23 05:32:38;;;;;;;44.05;20.63;;;3.00;99.90;;;;;;5034452;28;20036;-76
2023/01/23 05:35:04;;;;;;;45.20;19.23;;;3.00;99.90;;;;;;5049581;28;20547;-75
2023/01/23 05:37:30;;;;;;;42.80;19.45;;;3.00;99.90;;;;;;5049399;28;20025;-75
2023/01/23 05:39:56;;;;;;;40.35;19.52;;;3.00;99.90;;;;;;5048912;28;20013;-76
2023/01/23 05:42:21;;;;;;;45.15;20.90;;;3.00;99.90;;;;;;5039636;28;20104;-75
2023/01/23 05:44:47;;;;;;;46.80;19.55;;;3.00;99.90;;;;;;5043201;28;20033;-76
2023/01/23 05:47:13;;;;;;;45.50;20.38;;;3.00;99.90;;;;;;5045325;28;20025;-76
2023/01/23 05:49:39;;;;;;;48.25;20.33;;;3.00;99.90;;;;;;5046941;28;20071;-76
2023/01/23 05:52:05;;;;;;;43.17;20.65;;;3.00;99.90;;;;;;5031723;28;20025;-76
2023/01/23 05:54:30;;;;;;;46.28;19.33;;;3.00;99.90;;;;;;5052948;28;20332;-76
2023/01/23 05:56:56;;;;;;;43.38;20.05;;;3.00;99.90;;;;;;5044694;28;20468;-76
2023/01/23 05:59:21;;;;;;;43.47;20.83;;;3.00;99.90;;;;;;5034594;28;20032;-76
2023/01/23 06:01:47;;;;;;;45.35;19.83;;;3.00;99.90;;;;;;5052806;28;20491;-76
2023/01/23 06:04:15;;;;;;;44.28;21.00;;;3.00;99.90;;;;;;5051835;28;20074;-76
2023/01/23 06:06:41;;;;;;;47.45;20.55;;;3.00;99.90;;;;;;5035484;28;20029;-76
2023/01/23 06:09:07;;;;;;;47.95;20.25;;;3.00;99.90;;;;;;5037769;28;20067;-76
2023/01/23 06:11:32;;;;;;;44.15;20.40;;;3.00;99.90;;;;;;5016580;28;20053;-76
2023/01/23 06:13:58;;;;;;;45.38;20.00;;;3.00;99.90;;;;;;5034142;28;20433;-75
2023/01/23 06:16:23;;;;;;;42.15;20.30;;;3.00;99.90;;;;;;5034511;28;20523;-76
2023/01/23 06:18:49;;;;;;;47.65;20.98;;;3.00;99.90;;;;;;5036776;28;20321;-75
2023/01/23 06:21:17;;;;;;;46.22;20.60;;;3.00;99.90;;;;;;5034837;28;20036;-75
2023/01/23 06:23:43;;;;;;;43.20;20.40;;;3.00;99.90;;;;;;5036945;28;20082;-76
2023/01/23 06:26:08;;;;;;;45.85;20.88;;;3.00;99.90;;;;;;5032688;28;20025;-76
2023/01/23 06:28:34;;;;;;;42.78;20.75;;;3.00;99.90;;;;;;5022951;28;20028;-76
2023/01/23 06:31:01;;;;;;;46.20;21.52;;;3.00;99.90;;;;;;5050730;28;20051;-76
2023/01/23 06:33:27;;;;;;;49.30;21.50;;;3.00;99.90;;;;;;5051085;28;20403;-76
2023/01/23 06:35:59;;;;;;;39.30;19.90;;;3.00;99.90;;;;;;5045865;28;20075;-76
2023/01/23 06:38:26;;;;;;;41.50;19.08;;;3.00;99.90;;;;;;5034629;28;20056;-76
2023/01/23 06:40:52;;;;;;;42.67;20.20;;;3.00;99.90;;;;;;5046891;28;20032;-75
2023/01/23 06:43:18;;;;;;;49.60;20.52;;;3.00;99.90;;;;;;5044522;28;20071;-76
2023/01/23 06:45:45;;;;;;;42.55;20.27;;;3.00;99.90;;;;;;5037387;28;20025;-76
2023/01/23 06:48:10;;;;;;;46.97;20.15;;;3.00;99.90;;;;;;5036465;28;20064;-76
2023/01/23 06:50:38;;;;;;;48.92;20.27;;;3.10;99.90;;;;;;5041710;28;20045;-76
2023/01/23 06:53:07;;;;;;;45.33;20.52;;;3.00;99.90;;;;;;5022173;28;20423;-75
2023/01/23 06:55:33;;;;;;;38.22;20.27;;;3.00;99.90;;;;;;5017827;28;20022;-76
2023/01/23 06:57:59;;;;;;;42.80;20.30;;;3.00;99.90;;;;;;5038748;28;20045;-76
2023/01/23 07:00:25;;;;;;;48.47;20.33;;;3.00;99.90;;;;;;5014158;28;20484;-76
2023/01/23 07:02:51;;;;;;;43.38;21.33;;;3.00;99.90;;;;;;5033509;28;20072;-76
2023/01/23 07:05:18;;;;;;;44.20;20.60;;;3.00;99.90;;;;;;5040561;28;20018;-76
2023/01/23 07:07:44;;;;;;;45.33;20.85;;;3.00;99.90;;;;;;5038362;28;20563;-76
2023/01/23 07:10:10;;;;;;;44.08;21.15;;;3.00;99.90;;;;;;5038776;28;20029;-76
2023/01/23 07:12:36;;;;;;;46.78;21.48;;;3.00;99.90;;;;;;5035064;28;20413;-76
2023/01/23 07:15:02;;;;;;;45.08;21.13;;;3.00;99.90;;;;;;5024431;28;20026;-76
2023/01/23 07:17:28;;;;;;;46.00;22.30;;;3.10;99.90;;;;;;5041599;28;20033;-76
2023/01/23 07:19:54;;;;;;;49.72;23.15;;;3.10;99.90;;;;;;5042922;28;20021;-76
2023/01/23 07:22:21;;;;;;;44.95;20.85;;;3.10;99.90;;;;;;5039525;28;20023;-76
2023/01/23 07:24:46;;;;;;;46.78;22.15;;;3.10;99.90;;;;;;5044121;28;20029;-76
2023/01/23 07:27:13;;;;;;;45.30;22.35;;;3.10;99.90;;;;;;5036223;28;20036;-76
2023/01/23 07:29:39;;;;;;;49.53;21.67;;;3.10;99.90;;;;;;5039980;28;20475;-75
2023/01/23 07:32:05;;;;;;;43.85;21.83;;;3.10;99.90;;;;;;5027107;28;20028;-76
2023/01/23 07:34:31;;;;;;;48.65;22.00;;;3.10;99.90;;;;;;5040192;28;20542;-76
2023/01/23 07:36:57;;;;;;;45.35;21.50;;;3.10;99.90;;;;;;5048516;28;20044;-76
2023/01/23 07:39:23;;;;;;;46.15;22.40;;;3.00;99.90;;;;;;5035211;28;20021;-75
2023/01/23 07:41:48;;;;;;;50.45;23.13;;;3.00;99.90;;;;;;5033847;28;20028;-76
2023/01/23 07:44:19;;;;;;;48.10;22.27;;;3.10;99.90;;;;;;5040531;28;20020;-76
2023/01/23 07:46:46;;;;;;;47.03;22.33;;;3.10;99.90;;;;;;5035455;28;20025;-76
2023/01/23 07:49:12;;;;;;;52.85;22.85;;;3.10;99.90;;;;;;5041119;28;20178;-76
2023/01/23 07:51:37;;;;;;;45.63;22.02;;;3.10;99.90;;;;;;5040063;28;20188;-76
2023/01/23 07:54:04;;;;;;;49.22;22.45;;;3.10;99.90;;;;;;5044180;28;20028;-76
2023/01/23 07:56:30;;;;;;;49.22;22.77;;;3.10;99.90;;;;;;5043047;28;20124;-76
2023/01/23 07:58:55;;;;;;;47.90;21.98;;;3.10;99.90;;;;;;5039882;28;20448;-76
2023/01/23 08:01:21;;;;;;;44.83;21.95;;;3.10;99.90;;;;;;5039584;28;20021;-76
2023/01/23 08:03:47;;;;;;;54.97;22.85;;;3.10;99.90;;;;;;5041284;28;20097;-76
2023/01/23 08:06:13;;;;;;;49.00;22.85;;;3.10;99.90;;;;;;5041461;28;20104;-76
2023/01/23 08:08:39;;;;;;;47.88;21.90;;;3.10;99.90;;;;;;5046717;28;20035;-76
2023/01/23 08:11:10;;;;;;;51.35;22.52;;;3.10;99.90;;;;;;5050539;28;20523;-76
2023/01/23 08:13:36;;;;;;;47.03;22.95;;;3.10;99.90;;;;;;5050137;28;20029;-75
2023/01/23 08:16:03;;;;;;;50.65;23.17;;;3.10;99.90;;;;;;5044227;28;20018;-76
2023/01/23 08:18:30;;;;;;;50.65;24.27;;;3.10;99.90;;;;;;5041591;28;20021;-76
2023/01/23 08:20:57;;;;;;;46.92;22.42;;;3.10;99.90;;;;;;5046782;28;20425;-76
2023/01/23 08:23:27;;;;;;;43.60;22.15;;;3.10;99.90;;;;;;5038258;28;20092;-74
2023/01/23 08:25:54;;;;;;;50.88;22.65;;;3.10;99.90;;;;;;5022013;28;20072;-75
2023/01/23 08:28:20;;;;;;;49.83;22.70;;;3.10;99.90;;;;;;5034930;28;20362;-75
2023/01/23 08:30:46;;;;;;;44.15;23.30;;;3.20;99.90;;;;;;5018531;28;20025;-75
2023/01/23 08:33:11;;;;;;;46.78;22.92;;;3.10;99.90;;;;;;5029469;28;20013;-75
2023/01/23 08:35:37;;;;;;;46.67;22.67;;;3.20;99.90;;;;;;5037148;28;20057;-75
2023/01/23 08:38:04;;;;;;;49.83;22.35;;;3.20;99.90;;;;;;5031821;28;20108;-75
2023/01/23 08:40:30;;;;;;;49.17;23.38;;;3.20;99.90;;;;;;5032394;28;20029;-75
2023/01/23 08:42:55;;;;;;;49.75;23.98;;;3.20;99.90;;;;;;5038615;28;20028;-75
2023/01/23 08:45:21;;;;;;;48.25;23.67;;;3.20;99.90;;;;;;5042830;28;20026;-75
2023/01/23 08:47:47;;;;;;;44.17;21.90;;;3.20;99.90;;;;;;5049789;28;20021;-75
2023/01/23 08:50:13;;;;;;;47.40;22.90;;;3.20;99.90;;;;;;5043437;28;20492;-75
2023/01/23 08:52:39;;;;;;;43.50;21.77;;;3.20;99.90;;;;;;5049362;28;20024;-75
2023/01/23 08:55:05;;;;;;;47.47;21.70;;;3.20;99.90;;;;;;5045513;28;20018;-75
2023/01/23 08:57:30;;;;;;;42.20;21.85;;;3.30;99.90;;;;;;5039921;28;20032;-74
2023/01/23 08:59:56;;;;;;;41.17;21.63;;;3.30;99.90;;;;;;5020550;28;20025;-75
2023/01/23 09:02:22;;;;;;;43.28;21.65;;;3.30;99.90;;;;;;5033065;28;20040;-75
2023/01/23 09:04:47;;;;;;;39.75;21.00;;;3.30;99.90;;;;;;5035778;28;20471;-75
2023/01/23 09:07:13;;;;;;;46.35;21.15;;;3.30;99.90;;;;;;5035573;28;20016;-75
2023/01/23 09:09:39;;;;;;;41.80;21.38;;;3.30;99.90;;;;;;5035337;28;20088;-75
2023/01/23 09:12:04;;;;;;;41.63;21.08;;;3.30;99.90;;;;;;5032803;28;20025;-75
2023/01/23 09:14:30;;;;;;;43.70;21.23;;;3.40;99.90;;;;;;5036061;28;20021;-75
2023/01/23 09:16:56;;;;;;;42.10;21.35;;;3.40;99.90;;;;;;5036655;28;20052;-75
2023/01/23 09:19:21;;;;;;;45.67;22.40;;;3.40;99.90;;;;;;5033911;28;20022;-75
2023/01/23 09:21:47;;;;;;;47.42;22.30;;;3.40;99.90;;;;;;5034022;28;20028;-75
2023/01/23 09:24:12;;;;;;;42.03;22.60;;;3.40;99.90;;;;;;5048450;28;20044;-75
2023/01/23 09:26:39;;;;;;;45.92;22.70;;;3.40;99.90;;;;;;5046500;28;20056;-75
2023/01/23 09:29:04;;;;;;;44.35;22.15;;;3.50;99.90;;;;;;5050675;28;20017;-75
2023/01/23 09:31:30;;;;;;;45.95;22.27;;;3.50;99.90;;;;;;5049339;28;20367;-75
2023/01/23 09:33:56;;;;;;;47.10;22.13;;;3.60;99.90;;;;;;5052924;28;20052;-75
2023/01/23 09:36:22;;;;;;;41.55;21.42;;;3.60;99.90;;;;;;5034680;28;20048;-75
2023/01/23 09:38:48;;;;;;;43.38;21.75;;;3.60;99.90;;;;;;5043235;28;20021;-75
2023/01/23 09:41:18;;;;;;;44.15;20.30;;;3.60;99.90;;;;;;5035117;28;20029;-74
2023/01/23 09:44:06;;;;;;;41.42;21.13;;;3.70;99.90;;;;;;5024352;28;20447;-75
2023/01/23 09:46:43;;;;;;;41.40;21.20;;;3.60;99.90;;;;;;5051760;28;20025;-75
2023/01/23 09:49:40;;;;;;;41.03;20.80;;;3.60;99.90;;;;;;5052941;28;20052;-75
2023/01/23 09:52:09;;;;;;;45.25;21.42;;;3.70;99.90;;;;;;5041107;28;20049;-75
2023/01/23 09:54:58;;;;;;;42.25;21.75;;;3.70;99.90;;;;;;5052744;28;20026;-75
2023/01/23 09:57:36;;;;;;;42.47;21.15;;;3.80;99.90;;;;;;5045789;28;20026;-75
2023/01/23 10:00:21;;;;;;;45.80;20.50;;;3.80;99.90;;;;;;5033882;28;20036;-75
2023/01/23 10:02:46;;;;;;;41.83;21.13;;;3.80;99.90;;;;;;5033503;28;20033;-75
2023/01/23 10:05:14;;;;;;;42.33;21.77;;;3.90;99.90;;;;;;5043362;28;20071;-75
2023/01/23 10:07:57;;;;;;;41.80;20.23;;;4.00;99.90;;;;;;5053040;28;20013;-75
2023/01/23 10:10:54;;;;;;;46.58;21.33;;;4.00;99.90;;;;;;5049431;28;20100;-75
2023/01/23 10:13:44;;;;;;;39.92;19.88;;;4.10;99.90;;;;;;5044174;28;20045;-75
2023/01/23 10:16:25;;;;;;;36.78;20.08;;;4.10;99.90;;;;;;5036290;28;20033;-75
2023/01/23 10:19:07;;;;;;;39.53;20.33;;;4.20;99.90;;;;;;5046642;28;20025;-75
2023/01/23 10:21:50;;;;;;;39.38;20.60;;;4.20;99.90;;;;;;5036989;28;20026;-75
2023/01/23 10:24:31;;;;;;;38.25;21.15;;;4.20;99.90;;;;;;5051497;28;20056;-75
2023/01/23 10:27:03;;;;;;;37.95;19.77;;;4.20;99.90;;;;;;5052492;28;20052;-75
2023/01/23 10:29:37;;;;;;;37.78;19.48;;;4.30;99.90;;;;;;5049387;28;20025;-75
2023/01/23 10:32:10;;;;;;;35.67;19.23;;;4.30;99.90;;;;;;5034123;28;20032;-75
2023/01/23 10:34:51;;;;;;;33.80;18.67;;;4.30;99.90;;;;;;5050905;28;20384;-75
2023/01/23 10:37:48;;;;;;;35.50;19.38;;;4.40;99.90;;;;;;5051474;28;20025;-75
2023/01/23 10:41:12;;;;;;;35.47;19.08;;;4.40;99.90;;;;;;5052330;28;20132;-75
2023/01/23 10:43:02;;;;;;;37.60;19.52;;;4.40;99.90;;;;;;5041920;28;20037;-75
2023/01/23 10:45:29;;;;;;;38.42;19.70;;;4.40;99.90;;;;;;5051247;28;20028;-75
2023/01/23 10:47:54;;;;;;;38.80;20.08;;;4.50;99.90;;;;;;5047810;28;20026;-75
2023/01/23 10:50:38;;;;;;;35.53;18.67;;;4.50;99.90;;;;;;5045975;28;20056;-75
2023/01/23 10:53:15;;;;;;;32.75;18.98;;;4.60;99.90;;;;;;5041860;28;20033;-74
2023/01/23 10:55:44;;;;;;;36.42;19.95;;;4.60;99.90;;;;;;5051740;28;20035;-75
2023/01/23 10:58:24;;;;;;;37.63;19.45;;;4.60;99.90;;;;;;5040928;28;20044;-75
2023/01/23 11:00:49;;;;;;;35.70;19.27;;;4.70;99.90;;;;;;5051752;28;20063;-74
2023/01/23 11:03:21;;;;;;;31.92;19.63;;;4.70;99.90;;;;;;5036756;28;20088;-75
2023/01/23 11:06:07;;;;;;;35.90;20.15;;;4.70;99.90;;;;;;5046777;28;20028;-75
2023/01/23 11:08:39;;;;;;;38.33;19.75;;;4.70;99.90;;;;;;5042603;28;20024;-75
2023/01/23 11:11:14;;;;;;;35.85;20.45;;;4.70;99.90;;;;;;5051735;28;20028;-75
2023/01/23 11:13:40;;;;;;;;;;;4.80;99.90;;;;;;5051463;28;20013;-74
2023/01/23 11:16:07;;;;;;;32.28;17.63;;;4.80;99.90;;;;;;5050618;28;20275;-74
2023/01/23 11:18:38;;;;;;;33.20;18.42;;;4.80;99.90;;;;;;5033384;28;20381;-75
2023/01/23 11:21:04;;;;;;;38.22;19.65;;;4.80;99.90;;;;;;5051113;28;20067;-74
2023/01/23 11:23:31;;;;;;;33.97;18.70;;;4.80;99.90;;;;;;5051142;28;20480;-74
2023/01/23 11:25:56;;;;;;;34.83;19.13;;;4.80;99.90;;;;;;5030004;28;20084;-74
2023/01/23 11:28:26;;;;;;;31.88;18.48;;;4.90;99.90;;;;;;5042181;28;20459;-74
2023/01/23 11:31:09;;;;;;;34.97;18.58;;;4.90;99.90;;;;;;5050114;28;20023;-74
2023/01/23 11:33:46;;;;;;;28.13;17.20;;;4.90;99.90;;;;;;5037055;28;20029;-74
2023/01/23 11:36:26;;;;;;;30.30;17.20;;;4.90;99.90;;;;;;5034397;28;20514;-74
2023/01/23 11:38:56;;;;;;;31.02;17.13;;;4.90;99.90;;;;;;5036406;28;20052;-74
2023/01/23 11:41:28;;;;;;;27.98;16.20;;;4.90;99.90;;;;;;5036881;28;20029;-74
2023/01/23 11:43:54;;;;;;;29.95;16.70;;;5.00;99.90;;;;;;5032605;28;20025;-75
2023/01/23 11:46:28;;;;;;;30.45;16.85;;;5.00;99.90;;;;;;5034953;28;20021;-74
2023/01/23 11:49:31;;;;;;;31.70;17.20;;;5.00;99.90;;;;;;5036639;28;20021;-74
2023/01/23 11:52:10;;;;;;;28.88;16.70;;;5.00;99.90;;;;;;5036811;28;20104;-74
2023/01/23 11:54:54;;;;;;;31.58;17.17;;;4.90;99.90;;;;;;5032638;28;20171;-74
2023/01/23 11:57:50;;;;;;;28.05;16.27;;;4.90;99.90;;;;;;5030662;28;20477;-74
2023/01/23 12:00:58;;;;;;;27.90;16.80;;;4.90;99.90;;;;;;5028476;28;20048;-74
2023/01/23 12:04:21;;;;;;;29.40;17.02;;;4.90;99.90;;;;;;4976882;28;20034;-74
2023/01/23 12:07:04;;;;;;;28.55;15.82;;;4.90;99.90;;;;;;4932346;29;20491;-74
2023/01/23 12:09:49;;;;;;;26.27;16.02;;;4.90;99.90;;;;;;4938968;29;20058;-74
2023/01/23 12:12:39;;;;;;;29.73;15.63;;;4.90;99.90;;;;;;4935425;28;20040;-74
2023/01/23 12:15:26;;;;;;;27.63;16.45;;;5.00;99.90;;;;;;4949989;28;20043;-74
2023/01/23 12:18:30;;;;;;;30.70;17.45;;;5.10;99.90;;;;;;4949487;28;20103;-74
2023/01/23 12:20:56;;;;;;;30.60;16.67;;;5.20;99.90;;;;;;4949621;28;20047;-74
2023/01/23 12:23:48;;;;;;;26.90;16.27;;;5.20;99.90;;;;;;4949750;28;20039;-74
2023/01/23 12:26:18;;;;;;;24.50;14.95;;;5.30;99.90;;;;;;4937602;28;20038;-74
2023/01/23 12:29:01;;;;;;;24.60;16.13;;;5.30;99.90;;;;;;4948870;28;20050;-74
2023/01/23 12:31:43;;;;;;;25.10;15.52;;;5.40;99.90;;;;;;4950058;28;20540;-74
2023/01/23 12:34:35;;;;;;;26.55;15.05;;;5.40;99.90;;;;;;4949287;28;20039;-74
2023/01/23 12:37:25;;;;;;;28.45;15.98;;;5.40;99.90;;;;;;4954796;28;20126;-74
2023/01/23 12:39:51;;;;;;;25.90;14.85;;;5.40;99.90;;;;;;4998150;28;20108;-74
2023/01/23 12:42:23;;;;;;;25.38;14.90;;;5.40;99.90;;;;;;5047035;28;20416;-74
2023/01/23 12:45:14;;;;;;;24.80;15.27;;;5.40;99.90;;;;;;5049930;28;20044;-74
2023/01/23 12:47:46;;;;;;;28.85;15.90;;;5.40;99.90;;;;;;5043231;28;20056;-74
2023/01/23 12:50:16;;;;;;;23.73;14.77;;;5.50;99.90;;;;;;5043267;28;20049;-74
2023/01/23 12:52:59;;;;;;;24.98;14.68;;;5.50;99.90;;;;;;5049163;28;20021;-74
2023/01/23 12:55:39;;;;;;;24.90;14.23;;;5.50;99.90;;;;;;5049147;28;20028;-74
2023/01/23 12:58:10;;;;;;;24.65;14.32;;;5.50;99.90;;;;;;5049732;28;20040;-74